KLNL

Details ICAO KLNL
Name KINGS LAND O LAKES
Region United States
Timezone America/Chicago (UTC-6.0)
Plans Departing 2
Arriving 4
Stats Elevation 1,704 ft / 519 m (AMSL)
Location 46.154001° -89.212054°
Runways 2
Magnetic Variation 3.375° W
Sunrise 2017-12-11 13:30:57 UTC / 2017-12-11 07:30:57 Local
Sunset 2017-12-11 22:12:23 UTC / 2017-12-11 16:12:23 Local
Advertisement - Login to hide

Runways

ID Width Length Bearing (true) Bearing (mag) Surface Threshold Offset Overrun Length
05 130 ft / 40 m 2,577 ft / 786 m 45.97° 49.34° Grass 0 ft / 0 m 585 ft / 178 m
14 75 ft / 23 m 3,998 ft / 1,219 m 143.08° 146.45° Asphalt 200 ft / 61 m 0 ft / 0 m
23 130 ft / 40 m 2,577 ft / 786 m 225.97° 229.34° Grass 600 ft / 183 m 368 ft / 112 m
32 75 ft / 23 m 3,998 ft / 1,219 m 323.09° 326.46° Asphalt 0 ft / 0 m 0 ft / 0 m

Map

Weather


0- 5 10 15 20 25 30 35+ Temperature / ° C

Clouds and Precipitation
Forecast for 2017-12-11 18:00 UTC. Updated 2 hours ago

Ground ~20,000 ft ~40,000 ft Winds

METAR

KLNL 111855Z AUTO 27005KT 10SM OVC008 M05/M06 A2970 RMK AO2 T10501065

TAF

Not found

Frequencies

Recorded 119.52 MHz AWOS 3
Unicom 122.80 MHz CTAF/UNICOM
Warning: Do not use this data for real-world aviation or navigation. No guarantee of current accuracy is given.